Aérodrome :
LOGIN :

S'inscrire | Disclaimer

   EN    FR    IT 

 










Légende :    VFR   VFR Marginal   IFR   IFR Intensif   IFR Très Intensif
Visi : 
Plafond : 
>= 8 km
>= 3000ft
5 à 8 km
1000 à 3000 ft
1500m à 5 km
500 à 1000 ft
800 à 1500m
200 à 500 ft
< 800m
< 200 ft
Symboles :   Orages  Brouillard  Fortes neiges  Fortes précipitations  Vent > 20 kt
SIGMETs :   Divers  Orages  Givrage  Turbulence  Onde Orograph.  Cendres Volcan.







- Altitude de l'aérodrome : 1475 ft


LSZC - Buochs Stans

DERNIER METAR :
  • 211820Z AUTO 08005KT 4500 -RA SCT011 BKN042 BKN050 12/11 Q1017

METARs EXPIRÉS :
  • 211750Z AUTO VRB02KT 4100 -RA BR SCT010 SCT045 BKN050 12/11 Q1016
  • 211720Z AUTO 03003KT 3300 RA BR SCT039 SCT045 BKN050 12/11 Q1017
  • 211650Z AUTO 05003KT 7000 RA BKN042 BKN050 12/11 Q1016
  • 211620Z AUTO VRB02KT 6000 RA OVC050 12/11 Q1016
  • 211550Z AUTO VRB02KT 6000 RA FEW020 BKN045 BKN050 13/11 Q1016

TAF TAF LSZC
Valide du 21 à 15h jusqu'au 22 à 00h UTC


211425Z 2115/2124 04005KT 9999 -RA BKN048
TEMPO 2115/2124 SHRA
Pas de NOTAMs connus pour ce terrain.



MET'MAP, la Météo Aéronautique d'un coup d'oeil ! - Copyright ORBIFLY Décembre 2007 - Disclaimer

ORBIFLY MET'MAP TEAM :

Programmation & Développement : Alexandra Zaïnal
Conception & Développement : Baudouin d'Aumeries
Co-Programmation & Développement : Marc-Olivier Méhu
Soutien technique & logistique : Manuel Goepfert

Contact : metmap@orbifly.com




SOURCES & CREDITS :

   NOAA